ADDS METAR Data INFO
IDs: Format: Raw Decoded Include TAF

Data at: 0451 UTC 22 Apr 2018

METAR for:KLEX (Lexington/Blue Grass, KY, US)
Text:KLEX 220354Z 04009KT 10SM CLR 11/M01 A3028 RMK AO2 SLP254 T01061006 $
Temperature: 10.6°C ( 51°F)
Dewpoint: -0.6°C ( 31°F) [RH = 46%]
Pressure (altimeter):30.28 inches Hg (1025.5 mb) [Sea level pressure: 1025.4 mb]
Winds:from the NE (40 degrees) at 10 MPH (9 knots; 4.6 m/s)
Visibility:10 or more sm (16+ km)
Ceiling:at least 12,000 feet AGL
Clouds:sky clear below 12,000 feet AGL
QC Flag:SOME DATA ABOVE MAY BE INACCURATE!!!"$" is an indication the sensor requires maintenance.